Chennai, India
Current Conditions -  °F | °C
As of 1:10 PM on Monday 26 Jan 2015 (Local Time) from VOMM Reporting Station
Scattered Clouds Scattered Clouds  
Wind Chill: 84°   Ceiling: Unl
Heat Index: 87°   Visibility: 5mi
Dew Point: 68°   Wind: 10mph
Humidity: 58%   Direction: 90°E
Pressure: 29.94"   Gusts: NA
Location:  13.06°N, 80.25°E
Report Text: VOMM 260810Z 09009KT 8000 FEW020 SCT025 29/20 Q1014 NOSIG
Loading
Personal Weather Stations






























Interactive Weather Map New forecast layout! Learn more

10-Day Weather Forecast

Advertisements
Track Severe Weather on mobile